Time;durP1;ratioP1;P1;durP2;ratioP2;P2;SDS_P1;SDS_P2;PMS_P1;PMS_P2;Temp;Humidity;BMP_temperature;BMP_pressure;BME280_temperature;BME280_humidity;BME280_pressure;Samples;Min_cycle;Max_cycle;Signal;HPM_P1;HPM_P2
2022/04/11 00:01:48;;;;;;;8.73;6.27;;;5.90;99.90;;;;;;5014103;28;20716;-80
2022/04/11 00:04:13;;;;;;;14.73;6.87;;;5.80;99.90;;;;;;5013895;28;20185;-80
2022/04/11 00:06:39;;;;;;;9.57;6.07;;;5.80;99.90;;;;;;5031163;28;20262;-80
2022/04/11 00:09:04;;;;;;;8.03;6.20;;;5.80;99.90;;;;;;5014146;28;20178;-80
2022/04/11 00:11:30;;;;;;;8.10;5.67;;;5.70;99.90;;;;;;5031658;28;20217;-80
2022/04/11 00:13:55;;;;;;;8.83;5.83;;;5.60;99.90;;;;;;5014080;28;20206;-80
2022/04/11 00:16:21;;;;;;;10.43;5.57;;;5.70;99.90;;;;;;5031748;28;20175;-80
2022/04/11 00:18:47;;;;;;;7.57;5.00;;;5.80;99.90;;;;;;5031363;28;20181;-80
2022/04/11 00:21:12;;;;;;;8.30;5.90;;;5.90;99.90;;;;;;5013866;28;20716;-80
2022/04/11 00:23:38;;;;;;;11.67;5.90;;;6.00;99.90;;;;;;5031681;28;20237;-80
2022/04/11 00:26:03;;;;;;;7.57;4.80;;;6.10;99.90;;;;;;5013772;28;20179;-80
2022/04/11 00:28:29;;;;;;;8.70;6.00;;;6.10;99.90;;;;;;5031129;28;20179;-80
2022/04/11 00:30:55;;;;;;;8.73;5.47;;;6.10;99.90;;;;;;5031511;28;20196;-82
2022/04/11 00:33:20;;;;;;;6.37;5.27;;;6.20;99.90;;;;;;5013983;28;20181;-82
2022/04/11 00:35:46;;;;;;;9.30;5.80;;;6.20;99.90;;;;;;5031400;28;20190;-82
2022/04/11 00:38:12;;;;;;;7.83;5.80;;;6.00;99.90;;;;;;5030974;28;20170;-82
2022/04/11 00:40:39;;;;;;;7.57;5.57;;;5.90;99.90;;;;;;5014073;28;20908;-82
2022/04/11 00:43:05;;;;;;;9.53;5.87;;;5.90;99.90;;;;;;5013773;28;20495;-82
2022/04/11 00:45:30;;;;;;;11.20;6.07;;;6.00;99.90;;;;;;5031535;28;20210;-82
2022/04/11 00:47:56;;;;;;;11.73;6.10;;;5.90;99.90;;;;;;5030799;28;20230;-82
2022/04/11 00:50:22;;;;;;;7.07;5.40;;;5.90;99.90;;;;;;5033907;28;20233;-82
2022/04/11 00:52:50;;;;;;;10.53;6.37;;;6.00;99.90;;;;;;5035300;28;20183;-82
2022/04/11 00:55:21;;;;;;;6.80;5.40;;;6.00;99.90;;;;;;5035131;28;20932;-82
2022/04/11 00:57:48;;;;;;;6.97;5.17;;;5.90;99.90;;;;;;5034519;28;20413;-82
2022/04/11 01:00:14;;;;;;;6.93;5.03;;;5.90;99.90;;;;;;5017363;28;20451;-82
2022/04/11 01:02:40;;;;;;;7.70;5.13;;;5.90;99.90;;;;;;5034950;28;20504;-83
2022/04/11 01:05:10;;;;;;;9.30;5.40;;;5.90;99.90;;;;;;5034579;28;20866;-81
2022/04/11 01:07:37;;;;;;;8.33;5.80;;;6.00;99.90;;;;;;5034249;28;20901;-82
2022/04/11 01:10:06;;;;;;;5.97;4.87;;;6.00;99.90;;;;;;5034785;28;20457;-82
2022/04/11 01:12:32;;;;;;;6.67;5.20;;;6.00;99.90;;;;;;5034884;28;20485;-82
2022/04/11 01:14:58;;;;;;;9.47;5.53;;;6.10;99.90;;;;;;5034934;28;20422;-83
2022/04/11 01:17:35;;;;;;;9.27;6.10;;;6.10;99.90;;;;;;5034042;28;20572;-82
2022/04/11 01:20:09;;;;;;;9.00;4.80;;;6.10;99.90;;;;;;5034644;28;20214;-82
2022/04/11 01:22:35;;;;;;;7.93;5.00;;;6.10;99.90;;;;;;5034658;28;20817;-82
2022/04/11 01:25:02;;;;;;;6.67;5.30;;;6.10;99.90;;;;;;5034564;28;20421;-82
2022/04/11 01:27:29;;;;;;;7.00;5.27;;;6.10;99.90;;;;;;5033957;28;20186;-82
2022/04/11 01:29:54;;;;;;;9.10;6.20;;;6.10;99.90;;;;;;5034387;28;20445;-82
2022/04/11 01:32:20;;;;;;;21.67;5.43;;;6.10;99.90;;;;;;5034586;28;20548;-82
2022/04/11 01:34:45;;;;;;;11.00;6.00;;;6.10;99.90;;;;;;5034442;28;20213;-82
2022/04/11 01:37:11;;;;;;;6.40;5.10;;;6.10;99.90;;;;;;5033729;28;20188;-82
2022/04/11 01:39:37;;;;;;;6.30;4.70;;;6.10;99.90;;;;;;5034199;28;20210;-82
2022/04/11 01:42:03;;;;;;;10.03;5.07;;;6.20;99.90;;;;;;5034161;28;20210;-83
2022/04/11 01:44:29;;;;;;;5.67;4.27;;;6.30;99.90;;;;;;5034232;28;20415;-82
2022/04/11 01:46:54;;;;;;;6.90;5.27;;;6.20;99.90;;;;;;5016051;28;20425;-83
2022/04/11 01:49:20;;;;;;;6.47;4.50;;;6.20;99.90;;;;;;5033862;28;20713;-82
2022/04/11 01:51:45;;;;;;;6.43;4.13;;;6.30;99.90;;;;;;5034203;28;20235;-80
2022/04/11 01:54:11;;;;;;;6.43;4.43;;;6.30;99.90;;;;;;5034035;28;20255;-80
2022/04/11 01:56:36;;;;;;;6.07;4.33;;;6.20;99.90;;;;;;5033402;28;20178;-81
2022/04/11 01:59:02;;;;;;;7.27;4.63;;;6.20;99.90;;;;;;5033719;28;20237;-80
2022/04/11 02:01:28;;;;;;;6.63;5.27;;;6.20;99.90;;;;;;5033442;28;20195;-80
2022/04/11 02:03:53;;;;;;;13.57;5.03;;;6.20;99.90;;;;;;5033835;28;20209;-81
2022/04/11 02:06:19;;;;;;;6.67;4.40;;;6.20;99.90;;;;;;5020424;28;20192;-80
2022/04/11 02:08:45;;;;;;;6.20;4.40;;;6.20;99.90;;;;;;5013300;28;20207;-80
2022/04/11 02:11:11;;;;;;;8.30;4.40;;;6.20;99.90;;;;;;5013836;28;20221;-80
2022/04/11 02:13:36;;;;;;;7.33;3.93;;;6.10;99.90;;;;;;5068294;22;20496;-79
2022/04/11 02:16:02;;;;;;;4.30;3.60;;;6.10;99.90;;;;;;5046975;28;20424;-79
2022/04/11 02:18:28;;;;;;;6.33;3.93;;;6.10;99.90;;;;;;5063767;28;20674;-78
2022/04/11 02:20:53;;;;;;;8.40;4.47;;;6.00;99.90;;;;;;5058382;28;20179;-78
2022/04/11 02:23:19;;;;;;;5.73;4.20;;;6.10;99.90;;;;;;5035990;28;20725;-78
2022/04/11 02:25:44;;;;;;;6.67;4.53;;;6.10;99.90;;;;;;5035792;28;20528;-78
2022/04/11 02:28:10;;;;;;;8.90;4.53;;;6.00;99.90;;;;;;5053477;28;20205;-78
2022/04/11 02:30:36;;;;;;;7.77;4.80;;;6.00;99.90;;;;;;5054072;28;20178;-78
2022/04/11 02:33:01;;;;;;;5.43;4.23;;;5.80;99.90;;;;;;5053607;28;20198;-78
2022/04/11 02:35:27;;;;;;;6.57;4.37;;;5.80;99.90;;;;;;5053864;28;20264;-79
2022/04/11 02:37:53;;;;;;;7.67;4.40;;;5.80;99.90;;;;;;5053328;28;20554;-78
2022/04/11 02:40:19;;;;;;;6.87;4.27;;;5.80;99.90;;;;;;5053659;28;20408;-79
2022/04/11 02:42:45;;;;;;;5.23;3.60;;;5.90;99.90;;;;;;5053582;28;20593;-78
2022/04/11 02:45:12;;;;;;;5.50;4.33;;;5.90;99.90;;;;;;5053699;28;20416;-79
2022/04/11 02:47:38;;;;;;;5.67;3.70;;;5.80;99.90;;;;;;5034907;28;20412;-78
2022/04/11 02:50:05;;;;;;;6.60;4.10;;;5.60;99.90;;;;;;5053307;28;20466;-78
2022/04/11 02:52:30;;;;;;;8.30;4.83;;;5.60;99.90;;;;;;5035605;28;20535;-78
2022/04/11 02:54:56;;;;;;;10.37;4.47;;;5.70;99.90;;;;;;5053507;28;20440;-78
2022/04/11 02:57:23;;;;;;;5.53;3.80;;;5.70;99.90;;;;;;5052590;28;20550;-78
2022/04/11 02:59:49;;;;;;;5.30;3.90;;;5.70;99.90;;;;;;5053396;28;20176;-78
2022/04/11 03:02:14;;;;;;;6.80;4.00;;;5.70;99.90;;;;;;5053052;28;20474;-79
2022/04/11 03:04:40;;;;;;;5.33;3.97;;;5.60;99.90;;;;;;5035539;28;20416;-78
2022/04/11 03:07:06;;;;;;;4.90;3.67;;;5.50;99.90;;;;;;5052447;28;20184;-79
2022/04/11 03:09:32;;;;;;;6.00;4.43;;;5.50;99.90;;;;;;5034743;28;20171;-78
2022/04/11 03:11:57;;;;;;;5.73;4.53;;;5.40;99.90;;;;;;5052303;28;20438;-78
2022/04/11 03:14:23;;;;;;;5.57;4.17;;;5.40;99.90;;;;;;5052970;28;20190;-78
2022/04/11 03:16:49;;;;;;;5.70;3.77;;;5.30;99.90;;;;;;5034469;28;20271;-79
2022/04/11 03:19:14;;;;;;;6.57;4.60;;;5.40;99.90;;;;;;5052677;28;20184;-78
2022/04/11 03:21:40;;;;;;;7.50;4.10;;;5.50;99.90;;;;;;5035218;28;20222;-78
2022/04/11 03:24:06;;;;;;;4.63;3.40;;;5.50;99.90;;;;;;5052440;28;20235;-78
2022/04/11 03:26:31;;;;;;;14.13;4.30;;;5.60;99.90;;;;;;5054774;28;20218;-78
2022/04/11 03:28:57;;;;;;;4.30;2.93;;;5.60;99.90;;;;;;5072732;28;20457;-78
2022/04/11 03:31:22;;;;;;;5.20;3.90;;;5.60;99.90;;;;;;5054697;28;20177;-79
2022/04/11 03:33:48;;;;;;;6.00;4.20;;;5.60;99.90;;;;;;5054512;28;20199;-79
2022/04/11 03:36:13;;;;;;;5.63;4.00;;;5.60;99.90;;;;;;5054403;28;20186;-78
2022/04/11 03:38:39;;;;;;;7.67;3.87;;;5.50;99.90;;;;;;5071795;28;20213;-78
2022/04/11 03:41:05;;;;;;;5.70;3.87;;;5.50;99.90;;;;;;5072277;28;20187;-78
2022/04/11 03:43:30;;;;;;;6.90;4.50;;;5.50;99.90;;;;;;5072161;28;20223;-78
2022/04/11 03:45:56;;;;;;;5.80;3.63;;;5.50;99.90;;;;;;5072292;28;20175;-78
2022/04/11 03:48:21;;;;;;;5.53;3.97;;;5.50;99.90;;;;;;5071597;28;20179;-78
2022/04/11 03:50:47;;;;;;;5.47;3.93;;;5.60;99.90;;;;;;5054411;28;20271;-78
2022/04/11 03:53:12;;;;;;;4.83;3.83;;;5.50;99.90;;;;;;5072046;28;20258;-78
2022/04/11 03:55:38;;;;;;;5.50;4.30;;;5.40;99.90;;;;;;5071998;28;20183;-79
2022/04/11 03:58:04;;;;;;;10.20;4.60;;;5.40;99.90;;;;;;5053328;28;20216;-78
2022/04/11 04:00:30;;;;;;;6.40;4.33;;;5.30;99.90;;;;;;5054159;28;20231;-78
2022/04/11 04:03:06;;;;;;;5.20;3.70;;;5.30;99.90;;;;;;5071923;28;20231;-78
2022/04/11 04:05:31;;;;;;;7.00;3.53;;;5.20;99.90;;;;;;5054052;28;20254;-79
2022/04/11 04:07:57;;;;;;;4.37;3.50;;;5.20;99.90;;;;;;5071184;28;20452;-79
2022/04/11 04:10:26;;;;;;;6.47;4.07;;;5.10;99.90;;;;;;5053932;28;20199;-78
2022/04/11 04:13:00;;;;;;;5.97;3.40;;;5.10;99.90;;;;;;5053372;28;20211;-79
2022/04/11 04:15:26;;;;;;;5.03;4.10;;;5.00;99.90;;;;;;5053755;28;20500;-78
2022/04/11 04:17:52;;;;;;;5.70;3.90;;;4.90;99.90;;;;;;5071147;28;20498;-79
2022/04/11 04:20:18;;;;;;;5.27;3.67;;;4.90;99.90;;;;;;5053857;28;20211;-78
2022/04/11 04:22:44;;;;;;;5.37;3.80;;;4.80;99.90;;;;;;5071735;28;20994;-79
2022/04/11 04:25:09;;;;;;;5.57;3.50;;;4.80;99.90;;;;;;5056124;28;20184;-78
2022/04/11 04:27:35;;;;;;;7.90;4.70;;;4.70;99.90;;;;;;5039467;28;20190;-78
2022/04/11 04:30:00;;;;;;;6.73;4.50;;;4.70;99.90;;;;;;5056282;28;20594;-79
2022/04/11 04:32:27;;;;;;;6.80;3.93;;;4.60;99.90;;;;;;5072972;28;20199;-78
2022/04/11 04:34:53;;;;;;;4.70;3.53;;;4.60;99.90;;;;;;5056595;28;20167;-78
2022/04/11 04:37:18;;;;;;;6.73;3.87;;;4.50;99.90;;;;;;5055502;28;20414;-78
2022/04/11 04:39:44;;;;;;;6.70;4.17;;;4.50;99.90;;;;;;5038472;28;20939;-79
2022/04/11 04:42:09;;;;;;;4.97;4.10;;;4.50;99.90;;;;;;5040051;28;20207;-79
2022/04/11 04:44:41;;;;;;;9.07;4.80;;;4.50;99.90;;;;;;5060584;28;20172;-79
2022/04/11 04:47:10;;;;;;;5.83;4.43;;;4.50;99.90;;;;;;5041529;28;20201;-80
2022/04/11 04:49:36;;;;;;;5.70;3.80;;;4.40;99.90;;;;;;5059639;28;20425;-80
2022/04/11 04:52:02;;;;;;;5.40;4.10;;;4.40;99.90;;;;;;5060039;28;20414;-79
2022/04/11 04:54:27;;;;;;;6.00;3.83;;;4.40;99.90;;;;;;5058437;28;20924;-80
2022/04/11 04:56:53;;;;;;;5.53;3.80;;;4.30;99.90;;;;;;5054469;28;20422;-80
2022/04/11 04:59:18;;;;;;;4.90;3.83;;;4.30;99.90;;;;;;5055304;28;20688;-80
2022/04/11 05:01:44;;;;;;;4.53;3.30;;;4.20;99.90;;;;;;5055095;28;20183;-80
2022/04/11 05:04:10;;;;;;;4.40;3.60;;;4.20;99.90;;;;;;5055008;28;20199;-78
2022/04/11 05:06:35;;;;;;;8.20;4.17;;;4.10;99.90;;;;;;5054320;28;20305;-78
2022/04/11 05:09:01;;;;;;;3.77;3.30;;;4.10;99.90;;;;;;5055272;28;20178;-78
2022/04/11 05:11:26;;;;;;;4.50;2.87;;;4.10;99.90;;;;;;5054859;28;20176;-78
2022/04/11 05:13:52;;;;;;;5.80;4.27;;;4.00;99.90;;;;;;5036490;28;20223;-78
2022/04/11 05:16:18;;;;;;;5.80;3.57;;;4.00;99.90;;;;;;5054882;28;20172;-78
2022/04/11 05:18:45;;;;;;;5.13;3.73;;;4.10;99.90;;;;;;5036779;28;20187;-80
2022/04/11 05:21:10;;;;;;;5.80;3.90;;;4.10;99.90;;;;;;5037103;28;20464;-80
2022/04/11 05:23:36;;;;;;;5.93;4.13;;;4.10;99.90;;;;;;5036932;28;20489;-80
2022/04/11 05:26:05;;;;;;;5.53;3.87;;;4.10;99.90;;;;;;5054814;28;20179;-79
2022/04/11 05:28:31;;;;;;;6.27;4.40;;;4.20;99.90;;;;;;5036439;28;20183;-79
2022/04/11 05:30:56;;;;;;;6.93;4.00;;;4.20;99.90;;;;;;5037042;28;20476;-79
2022/04/11 05:33:22;;;;;;;4.80;3.73;;;4.20;99.90;;;;;;5036707;28;20450;-80
2022/04/11 05:35:48;;;;;;;5.40;4.23;;;4.30;99.90;;;;;;5054040;28;20286;-80
2022/04/11 05:38:14;;;;;;;10.03;4.00;;;4.40;99.90;;;;;;5036266;28;20206;-79
2022/04/11 05:40:40;;;;;;;6.50;4.50;;;4.40;99.90;;;;;;5036972;28;20186;-80
2022/04/11 05:43:07;;;;;;;5.57;4.20;;;4.50;99.90;;;;;;5054733;28;20462;-80
2022/04/11 05:45:33;;;;;;;7.23;3.83;;;4.60;99.90;;;;;;5054504;28;20176;-80
2022/04/11 05:47:58;;;;;;;5.47;4.50;;;4.60;99.90;;;;;;5054042;28;20498;-79
2022/04/11 05:50:24;;;;;;;6.77;4.07;;;4.60;99.90;;;;;;5054685;28;20180;-80
2022/04/11 05:52:49;;;;;;;5.63;3.70;;;4.70;99.90;;;;;;5054326;28;20195;-79
2022/04/11 05:55:15;;;;;;;7.17;5.13;;;4.80;99.90;;;;;;5070666;28;20182;-79
2022/04/11 05:57:40;;;;;;;7.67;5.27;;;4.80;99.90;;;;;;5053625;28;20183;-79
2022/04/11 06:00:07;;;;;;;8.00;4.90;;;4.90;99.90;;;;;;5044427;28;20182;-79
2022/04/11 06:02:33;;;;;;;7.20;4.30;;;5.00;99.90;;;;;;5062273;28;20211;-79
2022/04/11 06:04:59;;;;;;;5.43;3.53;;;5.10;99.90;;;;;;5054111;28;20407;-79
2022/04/11 06:07:26;;;;;;;5.43;3.70;;;5.20;99.90;;;;;;5053376;28;20415;-79
2022/04/11 06:09:52;;;;;;;7.43;4.50;;;5.40;99.90;;;;;;5036222;28;20986;-80
2022/04/11 06:12:17;;;;;;;6.33;3.87;;;5.60;99.90;;;;;;5053636;28;20435;-80
2022/04/11 06:14:43;;;;;;;7.83;3.80;;;5.80;99.90;;;;;;5053762;28;20164;-80
2022/04/11 06:17:08;;;;;;;7.33;4.17;;;5.90;99.90;;;;;;5053043;28;20196;-82
2022/04/11 06:19:34;;;;;;;6.67;4.40;;;6.10;99.90;;;;;;5054178;28;20172;-81
2022/04/11 06:21:59;;;;;;;4.07;3.20;;;6.20;99.90;;;;;;5053761;28;20693;-80
2022/04/11 06:24:25;;;;;;;4.63;3.60;;;6.30;99.90;;;;;;5035980;28;20200;-80
2022/04/11 06:26:50;;;;;;;5.83;4.30;;;6.40;99.90;;;;;;5035144;28;20187;-80
2022/04/11 06:29:16;;;;;;;4.83;3.67;;;6.50;99.90;;;;;;5053555;28;20211;-80
2022/04/11 06:31:41;;;;;;;5.53;3.37;;;6.70;99.90;;;;;;5035775;28;20179;-80
2022/04/11 06:34:07;;;;;;;9.53;3.70;;;6.80;99.90;;;;;;5035589;28;20203;-80
2022/04/11 06:36:32;;;;;;;4.40;2.93;;;6.90;99.90;;;;;;5052742;28;20174;-81
2022/04/11 06:38:58;;;;;;;4.53;3.30;;;7.00;99.90;;;;;;5053255;28;20268;-81
2022/04/11 06:41:24;;;;;;;4.43;3.10;;;7.20;99.90;;;;;;5052153;28;20228;-80
2022/04/11 06:43:49;;;;;;;4.97;3.13;;;7.20;99.90;;;;;;5042865;28;20210;-80
2022/04/11 06:46:15;;;;;;;4.80;3.17;;;7.20;99.90;;;;;;5053177;28;20202;-81
2022/04/11 06:48:41;;;;;;;6.67;3.80;;;7.30;99.90;;;;;;5052836;28;20579;-81
2022/04/11 06:51:06;;;;;;;5.03;3.10;;;7.40;99.90;;;;;;5046280;28;20199;-80
2022/04/11 06:53:32;;;;;;;4.83;2.90;;;7.50;99.90;;;;;;5043101;28;20462;-81
2022/04/11 06:55:57;;;;;;;7.73;3.70;;;7.60;99.90;;;;;;5035295;28;20186;-81
2022/04/11 06:58:23;;;;;;;4.70;3.30;;;7.80;99.90;;;;;;5034505;28;20190;-80
2022/04/11 07:00:48;;;;;;;4.43;3.07;;;7.90;99.90;;;;;;5035166;28;20206;-81
2022/04/11 07:03:14;;;;;;;6.47;3.07;;;8.00;99.90;;;;;;5053224;28;20202;-80
2022/04/11 07:05:40;;;;;;;5.10;3.03;;;8.10;99.90;;;;;;5034989;28;20178;-80
2022/04/11 07:08:06;;;;;;;4.43;3.40;;;8.10;99.90;;;;;;5034535;28;20187;-81
2022/04/11 07:10:32;;;;;;;4.80;2.70;;;8.20;99.90;;;;;;5052905;28;20419;-81
2022/04/11 07:12:59;;;;;;;4.87;2.80;;;8.30;99.90;;;;;;5052916;28;20460;-81
2022/04/11 07:15:25;;;;;;;5.93;3.37;;;8.40;99.90;;;;;;5034668;28;20421;-80
2022/04/11 07:17:51;;;;;;;4.13;2.90;;;8.50;99.90;;;;;;5051864;28;20850;-80
2022/04/11 07:20:16;;;;;;;4.40;3.07;;;8.60;99.90;;;;;;5052743;28;20640;-81
2022/04/11 07:22:42;;;;;;;6.27;3.40;;;8.70;99.90;;;;;;5052574;28;20291;-81
2022/04/11 07:25:09;;;;;;;6.00;3.00;;;8.70;99.90;;;;;;5052513;28;20164;-81
2022/04/11 07:27:35;;;;;;;4.47;3.10;;;8.80;99.90;;;;;;5052008;28;20414;-82
2022/04/11 07:30:00;;;;;;;7.27;3.40;;;8.90;99.90;;;;;;5043039;28;21141;-83
2022/04/11 07:32:26;;;;;;;6.17;4.00;;;9.00;99.90;;;;;;5046071;28;20694;-83
2022/04/11 07:34:51;;;;;;;5.33;3.17;;;9.20;99.90;;;;;;5058811;28;20205;-83
2022/04/11 07:37:17;;;;;;;5.30;3.50;;;9.20;99.90;;;;;;5038590;28;20185;-81
2022/04/11 07:39:43;;;;;;;5.53;3.80;;;9.30;99.90;;;;;;5019718;28;20248;-83
2022/04/11 07:42:08;;;;;;;4.50;3.40;;;9.40;99.90;;;;;;5051219;28;20187;-82
2022/04/11 07:44:34;;;;;;;4.03;3.30;;;9.60;99.90;;;;;;5058342;28;20184;-82
2022/04/11 07:46:59;;;;;;;4.77;2.90;;;9.80;99.90;;;;;;5075801;28;20183;-82
2022/04/11 07:49:25;;;;;;;5.03;3.53;;;9.80;99.90;;;;;;5075468;28;20189;-82
2022/04/11 07:51:50;;;;;;;5.33;3.23;;;9.90;99.90;;;;;;5077015;28;20175;-82
2022/04/11 07:54:16;;;;;;;4.90;3.10;;;10.00;99.90;;;;;;5058211;28;20190;-82
2022/04/11 07:56:42;;;;;;;4.17;2.93;;;10.20;99.90;;;;;;5058150;28;20565;-82
2022/04/11 07:59:08;;;;;;;4.40;3.03;;;10.30;99.90;;;;;;5075317;28;20417;-82
2022/04/11 08:01:33;;;;;;;5.33;3.30;;;10.40;99.90;;;;;;5076415;28;20527;-82
2022/04/11 08:03:59;;;;;;;5.17;3.37;;;10.40;99.90;;;;;;5058656;28;20243;-82
2022/04/11 08:06:24;;;;;;;6.60;3.43;;;10.60;99.90;;;;;;5055902;28;20234;-82
2022/04/11 08:08:50;;;;;;;5.37;3.67;;;10.60;99.90;;;;;;5056327;28;20177;-82
2022/04/11 08:11:17;;;;;;;5.13;2.80;;;10.70;99.90;;;;;;5073389;28;20595;-82
2022/04/11 08:13:43;;;;;;;4.10;3.13;;;10.70;99.90;;;;;;5074765;28;20211;-82
2022/04/11 08:16:09;;;;;;;4.00;2.60;;;10.80;99.90;;;;;;5064605;23;20498;-76
2022/04/11 08:18:35;;;;;;;4.47;2.60;;;10.90;99.90;;;;;;5013946;28;20744;-76
2022/04/11 08:21:04;;;;;;;3.50;2.80;;;11.00;99.90;;;;;;5013929;28;20422;-76
2022/04/11 08:23:31;;;;;;;4.73;2.93;;;11.20;99.90;;;;;;5013926;28;20849;-76
2022/04/11 08:25:57;;;;;;;4.83;3.13;;;11.30;99.90;;;;;;5013673;28;20514;-76
2022/04/11 08:28:23;;;;;;;4.00;2.83;;;11.50;99.90;;;;;;5013591;28;20994;-76
2022/04/11 08:30:50;;;;;;;4.10;2.90;;;11.50;99.90;;;;;;5013819;28;20456;-76
2022/04/11 08:33:16;;;;;;;4.80;2.50;;;11.60;99.90;;;;;;5013822;28;20426;-76
2022/04/11 08:35:42;;;;;;;5.20;2.83;;;11.70;99.90;;;;;;5013592;28;20442;-76
2022/04/11 08:38:08;;;;;;;4.87;2.93;;;11.80;99.90;;;;;;5013687;28;20173;-76
2022/04/11 08:40:34;;;;;;;3.73;2.50;;;12.00;99.90;;;;;;5013619;28;20422;-76
2022/04/11 08:43:01;;;;;;;5.17;2.90;;;12.10;99.90;;;;;;5013710;28;20533;-77
2022/04/11 08:45:28;;;;;;;3.37;2.70;;;12.20;99.90;;;;;;5013453;28;20439;-77
2022/04/11 08:47:55;;;;;;;4.70;2.97;;;12.50;99.90;;;;;;5013554;28;20448;-77
2022/04/11 08:50:21;;;;;;;3.70;2.73;;;12.70;99.90;;;;;;5013906;28;20469;-76
2022/04/11 08:52:52;;;;;;;3.90;2.90;;;13.20;99.90;;;;;;5013660;28;20434;-76
2022/04/11 08:55:18;;;;;;;4.00;2.60;;;14.70;99.90;;;;;;5013237;28;20435;-77
2022/04/11 08:57:44;;;;;;;4.97;2.97;;;15.90;96.20;;;;;;5013500;28;20419;-77
2022/04/11 09:00:13;;;;;;;4.03;2.60;;;17.20;91.80;;;;;;5013470;28;20506;-77
2022/04/11 09:02:41;;;;;;;3.40;2.43;;;18.30;84.20;;;;;;5013466;28;20870;-77
2022/04/11 09:05:08;;;;;;;5.13;2.60;;;18.80;65.80;;;;;;5013352;28;20419;-77
2022/04/11 09:07:52;;;;;;;3.90;2.30;;;19.80;66.10;;;;;;5013370;28;20443;-77
2022/04/11 09:10:28;;;;;;;4.00;2.97;;;20.90;60.10;;;;;;5009904;28;20946;-77
2022/04/11 09:13:02;;;;;;;3.37;1.80;;;21.90;52.50;;;;;;5009169;28;20582;-77
2022/04/11 09:15:29;;;;;;;4.83;2.23;;;22.20;47.90;;;;;;5018603;28;20457;-77
2022/04/11 09:17:57;;;;;;;4.27;2.10;;;22.70;45.50;;;;;;5018021;28;20435;-77
2022/04/11 09:20:26;;;;;;;4.80;2.33;;;23.40;45.10;;;;;;5016330;28;20501;-77
2022/04/11 09:22:52;;;;;;;8.43;2.50;;;23.80;47.60;;;;;;5016740;28;20498;-77
2022/04/11 09:25:20;;;;;;;4.87;2.30;;;23.80;39.80;;;;;;5016075;28;20431;-77
2022/04/11 09:27:48;;;;;;;3.53;2.00;;;23.20;38.80;;;;;;5016574;28;20423;-77
2022/04/11 09:30:27;;;;;;;3.17;2.43;;;23.40;38.80;;;;;;5016373;28;20415;-77
2022/04/11 09:32:56;;;;;;;4.00;2.17;;;23.30;37.00;;;;;;5016507;28;20469;-77
2022/04/11 09:35:23;;;;;;;3.63;2.60;;;23.00;36.80;;;;;;5016207;28;20458;-77
2022/04/11 09:38:06;;;;;;;3.40;2.50;;;23.10;38.00;;;;;;5016151;28;20450;-77
2022/04/11 09:40:42;;;;;;;5.00;2.40;;;23.30;36.90;;;;;;5016307;28;20458;-77
2022/04/11 09:43:10;;;;;;;4.40;3.03;;;24.00;36.50;;;;;;5012274;28;20877;-77
2022/04/11 09:45:47;;;;;;;4.87;2.47;;;24.70;35.60;;;;;;5014817;28;20447;-77
2022/04/11 09:48:18;;;;;;;3.07;1.90;;;25.20;35.50;;;;;;5015584;28;20454;-77
2022/04/11 09:50:48;;;;;;;5.93;2.03;;;26.10;36.00;;;;;;5016202;28;20817;-77
2022/04/11 09:53:16;;;;;;;3.73;2.17;;;26.00;33.70;;;;;;5016305;28;20960;-77
2022/04/11 09:55:44;;;;;;;4.70;2.03;;;26.30;34.00;;;;;;5015803;28;20439;-77
2022/04/11 09:58:10;;;;;;;3.23;2.20;;;26.60;32.80;;;;;;5016042;28;20985;-77
2022/04/11 10:00:38;;;;;;;3.93;2.37;;;26.90;32.70;;;;;;5015640;28;20518;-77
2022/04/11 10:03:08;;;;;;;4.80;2.67;;;26.60;32.10;;;;;;5016012;28;20204;-77
2022/04/11 10:05:35;;;;;;;3.60;2.50;;;26.10;32.90;;;;;;5015899;28;20445;-77
2022/04/11 10:08:06;;;;;;;3.50;2.43;;;26.00;32.80;;;;;;5015883;28;20786;-77
2022/04/11 10:10:39;;;;;;;4.10;2.33;;;27.60;32.80;;;;;;5015956;28;20423;-77
2022/04/11 10:13:13;;;;;;;7.37;2.70;;;29.00;31.10;;;;;;5016243;28;20427;-77
2022/04/11 10:15:41;;;;;;;3.20;2.27;;;29.10;31.40;;;;;;5016740;28;20535;-77
2022/04/11 10:18:09;;;;;;;3.20;2.23;;;29.50;31.20;;;;;;5016278;28;20472;-78
2022/04/11 10:20:38;;;;;;;4.70;2.50;;;29.50;29.30;;;;;;5017371;28;20789;-77
2022/04/11 10:23:13;;;;;;;4.20;2.23;;;30.10;30.00;;;;;;5015904;28;20470;-77
2022/04/11 10:25:47;;;;;;;3.13;2.00;;;30.30;28.70;;;;;;5012680;28;20817;-78
2022/04/11 10:28:22;;;;;;;3.43;2.17;;;29.70;28.40;;;;;;5013307;28;20424;-78
2022/04/11 10:31:05;;;;;;;2.57;1.53;;;29.80;28.60;;;;;;5013007;28;20431;-77
2022/04/11 10:33:47;;;;;;;4.33;2.10;;;29.90;28.00;;;;;;5013534;28;20423;-77
2022/04/11 10:36:26;;;;;;;3.97;2.30;;;29.40;28.20;;;;;;5012788;28;20521;-77
2022/04/11 10:39:16;;;;;;;3.70;2.53;;;29.40;27.90;;;;;;5012752;28;20515;-77
2022/04/11 10:41:57;;;;;;;3.60;2.30;;;28.50;27.90;;;;;;5012841;28;20442;-77
2022/04/11 10:44:40;;;;;;;3.30;2.20;;;28.40;28.10;;;;;;5012971;28;20836;-77
2022/04/11 10:47:09;;;;;;;2.87;1.90;;;29.30;28.60;;;;;;5017343;28;20451;-78
2022/04/11 10:49:50;;;;;;;3.83;2.50;;;30.00;27.40;;;;;;5012487;28;20420;-77
2022/04/11 10:52:32;;;;;;;4.43;2.20;;;30.20;27.30;;;;;;5012904;28;20789;-77
2022/04/11 10:55:09;;;;;;;4.80;2.40;;;30.00;26.50;;;;;;5012272;28;20463;-78
2022/04/11 10:57:36;;;;;;;2.80;2.00;;;29.70;27.10;;;;;;5031823;28;20783;-78
2022/04/11 11:00:18;;;;;;;3.80;2.03;;;29.40;27.20;;;;;;5011310;28;20432;-78
2022/04/11 11:05:29;;;;;;;3.60;2.30;;;28.70;26.40;;;;;;5026398;28;20439;-79
2022/04/11 11:08:07;;;;;;;2.90;1.70;;;28.20;26.30;;;;;;5017295;28;21018;-78
2022/04/11 11:10:49;;;;;;;3.00;2.23;;;28.10;27.00;;;;;;5015605;28;20446;-78
2022/04/11 11:13:34;;;;;;;2.77;1.80;;;28.30;26.70;;;;;;5015135;28;20946;-78
2022/04/11 11:16:12;;;;;;;3.30;2.03;;;28.10;26.50;;;;;;5012612;28;20467;-77
2022/04/11 11:18:52;;;;;;;3.80;2.13;;;28.10;26.70;;;;;;5017278;28;20423;-78
2022/04/11 11:21:44;;;;;;;3.40;2.40;;;27.90;26.80;;;;;;5017265;28;20450;-78
2022/04/11 11:24:12;;;;;;;3.70;2.17;;;27.40;27.70;;;;;;5015068;28;20477;-78
2022/04/11 11:26:54;;;;;;;3.50;2.30;;;27.30;29.10;;;;;;5015033;28;20441;-77
2022/04/11 11:29:26;;;;;;;3.30;2.20;;;27.40;27.10;;;;;;5014887;28;20477;-77
2022/04/11 11:31:57;;;;;;;3.10;1.90;;;28.40;27.20;;;;;;5014815;28;21008;-77
2022/04/11 11:34:26;;;;;;;3.47;2.50;;;28.60;27.20;;;;;;5014116;28;20423;-77
2022/04/11 11:36:56;;;;;;;3.50;2.13;;;28.10;26.10;;;;;;5014356;28;20530;-77
2022/04/11 11:39:24;;;;;;;3.00;1.97;;;27.30;26.30;;;;;;5014779;28;20851;-77
2022/04/11 11:41:52;;;;;;;4.00;2.17;;;26.70;26.90;;;;;;5014575;28;20624;-77
2022/04/11 11:44:19;;;;;;;3.33;2.17;;;27.20;29.10;;;;;;5014526;28;20511;-77
2022/04/11 11:46:54;;;;;;;4.10;2.00;;;27.20;28.20;;;;;;5008933;28;20487;-78
2022/04/11 11:49:24;;;;;;;3.67;1.90;;;26.90;28.10;;;;;;5028526;28;20431;-77
2022/04/11 11:51:50;;;;;;;3.97;2.33;;;27.50;27.60;;;;;;5004043;28;20439;-78
2022/04/11 11:54:37;;;;;;;3.97;2.50;;;27.70;27.90;;;;;;5028314;28;21100;-78
2022/04/11 11:57:24;;;;;;;3.00;1.90;;;27.80;27.10;;;;;;5010757;28;20546;-77
2022/04/11 12:00:02;;;;;;;3.97;2.50;;;28.30;27.00;;;;;;5014298;28;20422;-78
2022/04/11 12:05:25;;;;;;;3.23;2.30;;;28.70;27.20;;;;;;5032509;28;20442;-79
2022/04/11 12:08:13;;;;;;;3.13;2.00;;;28.20;27.80;;;;;;5010787;28;20431;-78
2022/04/11 12:10:43;;;;;;;3.53;2.60;;;28.00;28.00;;;;;;5019661;28;20981;-78
2022/04/11 12:13:09;;;;;;;3.80;2.70;;;28.10;27.80;;;;;;5011412;28;20906;-78
2022/04/11 12:15:36;;;;;;;3.93;2.37;;;27.60;28.20;;;;;;5013923;28;20478;-78
2022/04/11 12:18:05;;;;;;;4.60;2.43;;;27.70;28.30;;;;;;5014142;28;20191;-78
2022/04/11 12:20:32;;;;;;;3.07;2.20;;;27.60;28.40;;;;;;5014386;28;20433;-78
2022/04/11 12:23:10;;;;;;;4.60;2.40;;;28.60;27.90;;;;;;5014669;28;20467;-78
2022/04/11 12:25:38;;;;;;;3.93;2.53;;;29.30;27.50;;;;;;5014487;28;20450;-78
2022/04/11 12:28:23;;;;;;;5.63;2.50;;;30.00;27.50;;;;;;5013750;28;20423;-78
2022/04/11 12:31:02;;;;;;;4.00;2.33;;;30.90;27.10;;;;;;5014166;28;20422;-78
2022/04/11 12:33:43;;;;;;;3.97;2.20;;;31.70;26.90;;;;;;5014311;28;20459;-78
2022/04/11 12:36:10;;;;;;;4.33;2.00;;;32.50;25.70;;;;;;5013806;28;20450;-78
2022/04/11 12:38:39;;;;;;;3.47;2.40;;;32.90;25.70;;;;;;5014167;28;20411;-78
2022/04/11 12:41:05;;;;;;;4.30;3.27;;;32.40;25.50;;;;;;5015312;28;20456;-78
2022/04/11 12:43:30;;;;;;;4.30;2.70;;;31.80;25.40;;;;;;5016030;28;20565;-78
2022/04/11 12:46:06;;;;;;;3.40;2.30;;;32.00;25.50;;;;;;5018635;28;20208;-79
2022/04/11 12:48:58;;;;;;;4.50;2.57;;;32.60;25.40;;;;;;5019579;28;20650;-78
2022/04/11 12:51:27;;;;;;;3.53;2.27;;;32.80;24.60;;;;;;5020056;28;20427;-79
2022/04/11 12:54:00;;;;;;;3.93;2.37;;;32.90;24.70;;;;;;5020032;28;20422;-79
2022/04/11 12:56:34;;;;;;;4.03;2.30;;;33.10;25.30;;;;;;5020236;28;20451;-79
2022/04/11 12:58:59;;;;;;;6.00;2.70;;;33.90;24.90;;;;;;5020657;28;20558;-79
2022/04/11 13:01:45;;;;;;;3.73;2.40;;;33.10;24.10;;;;;;5020049;28;20894;-79
2022/04/11 13:04:11;;;;;;;3.80;2.33;;;31.50;24.50;;;;;;5018273;28;20211;-79